createdAt,value
2023-05-03T11:09:18.260Z,3.20
2023-05-03T11:10:18.160Z,2.60
2023-05-03T11:11:18.124Z,2.70
2023-05-03T11:12:18.135Z,3.10
2023-05-03T11:13:18.153Z,2.70
2023-05-03T11:14:18.113Z,2.40
2023-05-03T11:15:18.060Z,2.80
2023-05-03T11:16:18.099Z,2.60
2023-05-03T11:17:18.039Z,2.20
2023-05-03T11:18:18.036Z,2.40
2023-05-03T11:19:18.014Z,2.10
2023-05-03T11:20:18.011Z,2.50
2023-05-03T11:21:17.970Z,3.00
2023-05-03T11:22:17.965Z,2.60
2023-05-03T11:23:17.945Z,2.60
2023-05-03T11:24:17.976Z,2.50
2023-05-03T11:25:17.941Z,2.80
2023-05-03T11:26:17.913Z,2.40
2023-05-03T11:27:17.914Z,2.50
2023-05-03T11:28:17.897Z,2.90
2023-05-03T11:29:17.906Z,2.30
2023-05-03T11:30:17.862Z,2.60
2023-05-03T11:31:17.914Z,2.30
2023-05-03T11:32:17.939Z,2.30
2023-05-03T11:33:17.831Z,2.40
2023-05-03T11:34:17.823Z,2.50
2023-05-03T11:35:17.808Z,2.60
2023-05-03T11:36:17.825Z,2.60
2023-05-03T11:37:17.776Z,2.90
2023-05-03T11:38:17.791Z,2.70
2023-05-03T11:39:18.968Z,2.40
2023-05-03T11:40:17.759Z,2.60
2023-05-03T11:41:17.809Z,2.30
2023-05-03T11:42:17.925Z,2.50
2023-05-03T11:43:17.728Z,2.50
2023-05-03T11:44:18.570Z,2.40
2023-05-03T11:45:17.705Z,2.40
2023-05-03T11:46:17.753Z,2.20
2023-05-03T11:47:17.853Z,2.50
2023-05-03T11:48:17.756Z,1.70
2023-05-03T11:49:17.631Z,2.10
2023-05-03T11:50:17.629Z,2.10
2023-05-03T11:51:17.606Z,2.10
2023-05-03T11:52:17.592Z,2.40
2023-05-03T11:53:17.581Z,2.10
2023-05-03T11:54:25.058Z,2.60
2023-05-03T11:55:17.557Z,2.10
2023-05-03T11:56:17.525Z,2.30
2023-05-03T11:57:17.552Z,2.20
2023-05-03T11:58:17.516Z,2.20
2023-05-03T11:59:17.527Z,2.10
2023-05-03T12:00:17.580Z,1.80
2023-05-03T12:01:17.500Z,1.90
2023-05-03T12:02:17.554Z,2.20
2023-05-03T12:03:17.708Z,2.30
2023-05-03T12:04:17.592Z,2.20
2023-05-03T12:05:18.070Z,1.70
2023-05-03T12:06:17.891Z,2.20
2023-05-03T12:07:19.949Z,2.20
2023-05-03T12:08:18.484Z,1.90
2023-05-03T12:09:18.680Z,1.80
2023-05-03T12:10:21.923Z,1.90
2023-05-03T12:11:18.221Z,2.00
2023-05-03T12:12:19.743Z,2.20
2023-05-03T12:13:17.762Z,1.70
2023-05-03T12:14:17.419Z,1.80
2023-05-03T12:15:17.591Z,1.90
2023-05-03T12:16:18.658Z,1.90
2023-05-03T12:17:19.000Z,1.70
2023-05-03T12:18:19.018Z,1.70
2023-05-03T12:19:17.656Z,1.80
2023-05-03T12:22:24.992Z,1.90
2023-05-03T12:23:17.399Z,1.70
2023-05-03T12:24:20.052Z,1.80
2023-05-03T12:25:20.110Z,2.20
2023-05-03T12:26:18.861Z,1.70
2023-05-03T12:27:19.385Z,2.10
2023-05-03T12:28:20.278Z,2.30
2023-05-03T12:29:19.272Z,1.60
2023-05-03T12:30:17.932Z,2.00
2023-05-03T12:31:18.065Z,1.70
2023-05-03T12:32:17.152Z,1.70
2023-05-03T12:33:17.628Z,1.70
2023-05-03T12:34:31.520Z,2.00
2023-05-03T12:35:19.746Z,1.70
2023-05-03T12:36:18.527Z,1.80
2023-05-03T12:37:17.598Z,1.60
2023-05-03T12:38:17.849Z,2.10
2023-05-03T12:39:17.186Z,1.90
2023-05-03T12:40:32.382Z,2.00
2023-05-03T12:41:32.414Z,1.80
2023-05-03T12:42:17.034Z,2.00
2023-05-03T12:43:16.997Z,1.70
2023-05-03T12:44:17.396Z,1.90
2023-05-03T12:45:20.860Z,1.80
2023-05-03T12:46:32.304Z,1.80
2023-05-03T12:48:17.129Z,1.60
2023-05-03T12:49:17.123Z,1.90
2023-05-03T12:50:18.823Z,1.60
2023-05-03T12:51:20.356Z,1.50
2023-05-03T12:53:17.783Z,1.40
2023-05-03T12:54:19.075Z,1.60
2023-05-03T12:55:18.431Z,1.60
2023-05-03T12:56:17.062Z,1.70
2023-05-03T12:57:22.658Z,1.70
2023-05-03T12:59:39.205Z,1.80
2023-05-03T13:00:20.968Z,1.70
2023-05-03T13:02:05.392Z,1.90
2023-05-03T13:03:19.831Z,1.70
2023-05-03T13:04:41.404Z,1.70
2023-05-03T13:05:29.655Z,1.50
2023-05-03T13:06:16.937Z,3.30
2023-05-03T13:07:17.148Z,2.00
2023-05-03T13:08:21.408Z,2.10
2023-05-03T13:09:20.079Z,1.80
2023-05-03T13:11:16.663Z,1.70
2023-05-03T13:12:16.718Z,1.60
2023-05-03T13:13:16.610Z,1.50
2023-05-03T13:14:16.585Z,1.50
2023-05-03T13:15:16.586Z,1.70
2023-05-03T13:16:16.649Z,1.60
2023-05-03T13:17:16.655Z,1.60
2023-05-03T13:18:16.588Z,1.60
2023-05-03T13:19:16.564Z,1.50
2023-05-03T13:20:16.522Z,1.50
2023-05-03T13:21:16.536Z,1.50
2023-05-03T13:22:16.533Z,1.40
2023-05-03T13:23:16.514Z,1.70
2023-05-03T13:24:16.493Z,1.60
2023-05-03T13:25:16.504Z,1.50
2023-05-03T13:26:16.481Z,1.80
2023-05-03T13:27:16.482Z,1.50
2023-05-03T13:28:16.452Z,1.80
2023-05-03T13:29:16.452Z,1.90
2023-05-03T13:30:16.437Z,1.50
2023-05-03T13:31:16.438Z,1.80
2023-05-03T13:32:16.555Z,1.50
2023-05-03T13:33:16.484Z,1.90
2023-05-03T13:34:16.384Z,1.60
2023-05-03T13:35:16.432Z,1.50
2023-05-03T13:36:16.381Z,1.50
2023-05-03T13:37:16.383Z,1.70
2023-05-03T13:38:16.360Z,1.70
2023-05-03T13:39:16.507Z,1.50
2023-05-03T13:40:16.342Z,1.80
2023-05-03T13:41:16.324Z,1.50
2023-05-03T13:42:16.345Z,1.90
2023-05-03T13:43:16.342Z,1.50
2023-05-03T13:44:16.313Z,1.20
2023-05-03T13:45:16.316Z,1.40
2023-05-03T13:46:16.383Z,1.40
2023-05-03T13:47:16.303Z,1.80
2023-05-03T13:48:18.468Z,1.40
2023-05-03T13:49:16.313Z,1.50
2023-05-03T13:50:16.245Z,1.50
2023-05-03T13:51:16.266Z,1.40
2023-05-03T13:52:16.273Z,1.90
2023-05-03T13:53:16.262Z,1.80
2023-05-03T13:54:16.236Z,1.60
2023-05-03T13:55:16.213Z,1.70
2023-05-03T13:56:16.206Z,1.70
2023-05-03T13:57:16.228Z,2.60
2023-05-03T13:58:16.197Z,4.00
2023-05-03T13:59:16.189Z,1.80
2023-05-03T14:00:16.190Z,1.60
2023-05-03T14:01:16.227Z,1.40
2023-05-03T14:02:16.275Z,1.70
2023-05-03T14:03:16.275Z,1.50
2023-05-03T14:04:16.193Z,1.60
2023-05-03T14:05:16.179Z,1.30
2023-05-03T14:06:16.139Z,1.40
2023-05-03T14:07:16.129Z,1.50
2023-05-03T14:08:16.146Z,1.50
2023-05-03T14:09:16.117Z,1.50
2023-05-03T14:10:16.130Z,1.50
2023-05-03T14:11:16.143Z,1.50
2023-05-03T14:12:16.123Z,1.50
2023-05-03T14:13:16.152Z,1.50
2023-05-03T14:14:16.078Z,1.50
2023-05-03T14:15:16.076Z,1.60
2023-05-03T14:16:21.821Z,1.40
2023-05-03T14:17:16.146Z,1.30
2023-05-03T14:18:16.120Z,1.50
2023-05-03T14:19:16.128Z,1.20
2023-05-03T14:20:16.045Z,1.40
2023-05-03T14:21:16.065Z,1.20
2023-05-03T14:22:16.031Z,1.50
2023-05-03T14:23:16.070Z,1.40
2023-05-03T14:24:16.045Z,1.30
2023-05-03T14:25:16.041Z,1.40
2023-05-03T14:26:16.030Z,1.40
2023-05-03T14:27:16.015Z,1.30
2023-05-03T14:28:15.996Z,1.30
2023-05-03T14:29:16.028Z,1.30
2023-05-03T14:30:15.993Z,1.40
2023-05-03T14:31:16.042Z,1.50
2023-05-03T14:32:15.997Z,1.70
2023-05-03T14:33:16.034Z,1.10
2023-05-03T14:34:16.001Z,1.30
2023-05-03T14:35:15.988Z,1.30
2023-05-03T14:36:15.953Z,1.30
2023-05-03T14:37:15.954Z,1.20
2023-05-03T14:38:15.972Z,1.30
2023-05-03T14:39:15.957Z,1.20
2023-05-03T14:40:15.931Z,1.30
2023-05-03T14:41:15.954Z,1.30
2023-05-03T14:42:15.951Z,1.20
2023-05-03T14:43:15.960Z,1.20
2023-05-03T14:44:15.922Z,1.30
2023-05-03T14:45:15.924Z,1.50
2023-05-03T14:46:15.944Z,1.40
2023-05-03T14:47:15.924Z,1.20
2023-05-03T14:48:15.893Z,1.30
2023-05-03T14:49:15.928Z,1.30
2023-05-03T14:50:15.895Z,1.20
2023-05-03T14:51:15.914Z,1.40
2023-05-03T14:52:15.900Z,1.30
2023-05-03T14:53:15.905Z,1.30
2023-05-03T14:54:15.877Z,1.30
2023-05-03T14:55:15.888Z,1.60
2023-05-03T14:56:15.898Z,1.30
2023-05-03T14:57:15.882Z,1.30
2023-05-03T14:58:16.079Z,1.10
2023-05-03T14:59:15.888Z,1.30
2023-05-03T15:00:15.865Z,1.30
2023-05-03T15:01:15.893Z,1.40
2023-05-03T15:02:15.860Z,1.30
2023-05-03T15:03:15.890Z,1.50
2023-05-03T15:04:15.864Z,1.30
2023-05-03T15:05:15.832Z,1.20
2023-05-03T15:06:15.839Z,1.20
2023-05-03T15:07:15.866Z,1.20
2023-05-03T15:08:15.851Z,1.10
2023-05-03T15:09:15.831Z,1.30
2023-05-03T15:10:15.809Z,1.60
2023-05-03T15:11:15.828Z,1.20
2023-05-03T15:12:15.824Z,1.50
2023-05-03T15:13:16.135Z,1.20
2023-05-03T15:14:15.912Z,1.20
2023-05-03T15:15:15.817Z,1.10
2023-05-03T15:16:15.834Z,1.20
2023-05-03T15:17:15.866Z,1.40
2023-05-03T15:18:15.845Z,1.20
2023-05-03T15:19:15.834Z,1.40
2023-05-03T15:20:15.793Z,1.50
2023-05-03T15:21:15.777Z,1.20
2023-05-03T15:22:15.785Z,1.20
2023-05-03T15:23:15.796Z,1.10
2023-05-03T15:24:15.788Z,1.10
2023-05-03T15:25:15.814Z,1.30
2023-05-03T15:26:15.756Z,1.40
2023-05-03T15:27:15.774Z,1.40
2023-05-03T15:28:15.765Z,1.60
2023-05-03T15:29:15.804Z,1.50
2023-05-03T15:30:15.777Z,1.40
2023-05-03T15:31:15.810Z,1.10
2023-05-03T15:32:15.749Z,1.20
2023-05-03T15:33:15.805Z,1.20
2023-05-03T15:34:15.735Z,1.20
2023-05-03T15:35:15.739Z,1.30
2023-05-03T15:36:15.757Z,1.10
2023-05-03T15:37:15.760Z,1.40
2023-05-03T15:38:15.842Z,1.20
2023-05-03T15:39:15.774Z,1.30
2023-05-03T15:40:15.723Z,1.10
2023-05-03T15:41:15.762Z,1.10
2023-05-03T15:42:15.704Z,1.10
2023-05-03T15:43:15.706Z,1.20
2023-05-03T15:44:15.741Z,1.30
2023-05-03T15:45:15.735Z,1.30
2023-05-03T15:46:15.849Z,1.30
2023-05-03T15:47:15.714Z,1.20
2023-05-03T15:48:15.792Z,1.00
2023-05-03T15:49:15.694Z,1.30
2023-05-03T15:50:15.796Z,1.30
2023-05-03T15:51:15.705Z,1.40
2023-05-03T15:52:15.686Z,1.20
2023-05-03T15:53:15.702Z,1.10
2023-05-03T15:54:15.690Z,1.40
2023-05-03T15:55:15.682Z,1.20
2023-05-03T15:56:15.694Z,1.50
2023-05-03T15:57:15.672Z,1.40
2023-05-03T15:58:15.803Z,1.30
2023-05-03T15:59:15.677Z,1.50
2023-05-03T16:00:15.675Z,1.10
2023-05-03T16:01:15.782Z,1.20
2023-05-03T16:02:15.654Z,1.30
2023-05-03T16:03:15.741Z,1.20
2023-05-03T16:04:15.688Z,1.10
2023-05-03T16:05:15.702Z,1.20
2023-05-03T16:06:15.692Z,1.30
2023-05-03T16:07:15.668Z,1.30
2023-05-03T16:08:15.646Z,1.40
2023-05-03T16:09:15.704Z,1.30
2023-05-03T16:10:15.661Z,1.10
2023-05-03T16:11:15.717Z,1.30
2023-05-03T16:12:15.715Z,1.30
2023-05-03T16:13:15.904Z,1.40
2023-05-03T16:14:15.724Z,1.20
2023-05-03T16:15:15.773Z,1.20
2023-05-03T16:16:15.741Z,1.30
2023-05-03T16:17:15.780Z,1.40
2023-05-03T16:18:15.745Z,1.40
2023-05-03T16:19:15.635Z,1.20
2023-05-03T16:20:15.629Z,1.40
2023-05-03T16:21:15.634Z,1.20
2023-05-03T16:22:15.651Z,1.30
2023-05-03T16:23:15.612Z,1.20
2023-05-03T16:24:15.609Z,1.10
2023-05-03T16:25:15.615Z,1.10
2023-05-03T16:26:15.622Z,1.20
2023-05-03T16:27:15.623Z,1.20
2023-05-03T16:28:15.617Z,1.30
2023-05-03T16:29:15.608Z,1.20
2023-05-03T16:30:15.601Z,1.30
2023-05-03T16:31:15.688Z,1.40
2023-05-03T16:32:15.624Z,1.20
2023-05-03T16:33:15.612Z,1.40
2023-05-03T16:34:15.592Z,1.30
2023-05-03T16:35:15.606Z,1.30
2023-05-03T16:36:15.593Z,1.30
2023-05-03T16:37:15.559Z,1.20
2023-05-03T16:38:15.596Z,1.30
2023-05-03T16:39:15.559Z,1.20
2023-05-03T16:40:15.587Z,1.10
2023-05-03T16:41:15.568Z,1.60
2023-05-03T16:42:15.576Z,3.50
2023-05-03T16:43:15.603Z,3.00
2023-05-03T16:44:15.550Z,1.80
2023-05-03T16:45:15.540Z,1.20
2023-05-03T16:46:15.606Z,1.40
2023-05-03T16:47:15.535Z,1.30
2023-05-03T16:48:15.663Z,1.20
2023-05-03T16:49:15.522Z,1.40
2023-05-03T16:50:15.552Z,1.00
2023-05-03T16:51:15.522Z,1.50
2023-05-03T16:52:15.560Z,1.30
2023-05-03T16:53:15.536Z,1.00
2023-05-03T16:54:15.507Z,1.30
2023-05-03T16:55:15.514Z,1.20
2023-05-03T16:56:15.520Z,1.20
2023-05-03T16:57:15.490Z,1.30
2023-05-03T16:58:15.509Z,1.20
2023-05-03T16:59:15.488Z,1.50
2023-05-03T17:00:15.495Z,1.10
2023-05-03T17:01:15.507Z,1.00
2023-05-03T17:02:15.507Z,1.40
2023-05-03T17:03:15.708Z,1.40
2023-05-03T17:04:15.488Z,1.20
2023-05-03T17:05:15.426Z,1.30
2023-05-03T17:06:15.458Z,1.10
2023-05-03T17:07:15.438Z,1.30
2023-05-03T17:08:15.451Z,1.20
2023-05-03T17:09:15.443Z,1.20
2023-05-03T17:10:15.398Z,1.10
2023-05-03T17:11:15.405Z,1.20
2023-05-03T17:12:15.376Z,1.60
2023-05-03T17:13:15.413Z,1.30
2023-05-03T17:17:01.523Z,1.60
2023-05-03T17:18:04.220Z,1.30
